Time,TemperatureF,DewpointF,PressureIn,WindDirection,WindDirectionDegrees,WindSpeedMPH,WindSpeedGustMPH,Humidity,HourlyPrecipIn,Conditions,Clouds,dailyrainin,SoftwareType,DateUTC
2013-04-02 00:03:00,69.0,66.0,30.01,WSW,249,0.0,1.0,91,0.00,,,0.00,,2013-04-02 04:03:00,
2013-04-02 00:13:00,69.0,66.0,30.01,WSW,249,0.0,1.0,91,0.00,,,0.00,,2013-04-02 04:13:00,
2013-04-02 00:23:00,69.0,66.0,30.01,WSW,249,0.0,0.0,91,0.00,,,0.00,,2013-04-02 04:23:00,
2013-04-02 00:33:00,69.0,66.0,30.01,WSW,249,0.0,0.0,91,0.00,,,0.00,,2013-04-02 04:33:00,
2013-04-02 00:43:00,69.0,66.0,30.01,WSW,249,0.0,0.0,91,0.00,,,0.00,,2013-04-02 04:43:00,
2013-04-02 00:53:00,69.0,66.0,30.00,WSW,249,0.0,0.0,91,0.00,,,0.00,,2013-04-02 04:53:00,
2013-04-02 01:02:00,68.0,65.0,30.00,WSW,249,0.0,0.0,91,0.00,,,0.00,,2013-04-02 05:02:00,
2013-04-02 01:12:00,68.0,65.0,30.00,WSW,249,0.0,0.0,91,0.00,,,0.00,,2013-04-02 05:12:00,
2013-04-02 01:22:00,69.0,67.0,29.99,WSW,249,0.0,2.0,93,0.00,,,0.00,,2013-04-02 05:22:00,
2013-04-02 01:32:00,69.0,67.0,30.00,WSW,249,0.0,0.0,93,0.00,,,0.00,,2013-04-02 05:32:00,
2013-04-02 01:43:00,69.0,67.0,30.00,WSW,249,0.0,0.0,93,0.00,,,0.00,,2013-04-02 05:43:00,
2013-04-02 01:52:00,68.0,66.0,29.99,WSW,249,0.0,0.0,92,0.00,,,0.00,,2013-04-02 05:52:00,
2013-04-02 02:02:00,68.0,66.0,29.99,WSW,249,0.0,0.0,92,0.00,,,0.00,,2013-04-02 06:02:00,
2013-04-02 02:12:00,68.0,66.0,29.99,WSW,249,0.0,0.0,92,0.00,,,0.00,,2013-04-02 06:12:00,
2013-04-02 02:22:00,68.0,66.0,29.99,WSW,249,0.0,1.0,93,0.00,,,0.00,,2013-04-02 06:22:00,
2013-04-02 02:32:00,69.0,67.0,29.99,WSW,249,0.0,0.0,93,0.00,,,0.00,,2013-04-02 06:32:00,
2013-04-02 02:42:00,69.0,67.0,29.99,WSW,249,0.0,0.0,93,0.00,,,0.00,,2013-04-02 06:42:00,
2013-04-02 02:52:00,68.0,66.0,30.00,WSW,249,0.0,0.0,93,0.00,,,0.00,,2013-04-02 06:52:00,
2013-04-02 03:02:00,67.0,65.0,29.99,WSW,249,0.0,0.0,92,0.00,,,0.00,,2013-04-02 07:02:00,
2013-04-02 03:12:00,67.0,65.0,29.99,WSW,249,0.0,0.0,92,0.00,,,0.00,,2013-04-02 07:12:00,
2013-04-02 03:22:00,67.0,65.0,29.99,WSW,249,0.0,0.0,92,0.00,,,0.00,,2013-04-02 07:22:00,
2013-04-02 03:32:00,66.0,64.0,29.99,WSW,249,0.0,0.0,92,0.00,,,0.00,,2013-04-02 07:32:00,
2013-04-02 03:42:00,66.0,64.0,29.99,WSW,249,0.0,0.0,92,0.00,,,0.00,,2013-04-02 07:42:00,
2013-04-02 03:53:00,66.0,64.0,29.99,WSW,249,0.0,0.0,93,0.00,,,0.00,,2013-04-02 07:53:00,
2013-04-02 04:02:00,66.0,64.0,29.99,WSW,249,0.0,0.0,93,0.00,,,0.00,,2013-04-02 08:02:00,
2013-04-02 04:13:00,66.0,64.0,29.99,WSW,249,0.0,0.0,93,0.00,,,0.00,,2013-04-02 08:13:00,
2013-04-02 04:22:00,66.0,64.0,29.98,WSW,249,0.0,0.0,94,0.00,,,0.00,,2013-04-02 08:22:00,
2013-04-02 04:32:00,66.0,64.0,29.98,WSW,249,0.0,0.0,94,0.00,,,0.00,,2013-04-02 08:32:00,
2013-04-02 04:42:00,66.0,64.0,29.98,WSW,249,0.0,0.0,94,0.00,,,0.00,,2013-04-02 08:42:00,
2013-04-02 04:52:00,66.0,64.0,29.98,WSW,249,0.0,0.0,94,0.00,,,0.00,,2013-04-02 08:52:00,
2013-04-02 05:02:00,67.0,65.0,29.98,WSW,249,0.0,0.0,94,0.00,,,0.00,,2013-04-02 09:02:00,
2013-04-02 05:12:00,67.0,65.0,29.98,WSW,249,0.0,0.0,94,0.00,,,0.00,,2013-04-02 09:12:00,
2013-04-02 05:22:00,67.0,65.0,29.99,WSW,249,0.0,0.0,94,0.00,,,0.00,,2013-04-02 09:22:00,
2013-04-02 05:32:00,67.0,65.0,29.99,WSW,249,0.0,0.0,94,0.00,,,0.00,,2013-04-02 09:32:00,
2013-04-02 05:43:00,67.0,65.0,29.99,WSW,249,0.0,0.0,94,0.00,,,0.00,,2013-04-02 09:43:00,
2013-04-02 05:53:00,67.0,65.0,30.00,NW,319,1.0,4.0,94,0.00,,,0.00,,2013-04-02 09:53:00,
2013-04-02 06:03:00,67.0,65.0,30.00,NW,321,3.0,4.0,94,0.00,,,0.00,,2013-04-02 10:03:00,
2013-04-02 06:13:00,67.0,65.0,30.00,NW,321,3.0,4.0,94,0.00,,,0.00,,2013-04-02 10:13:00,
2013-04-02 06:23:00,67.0,66.0,30.01,West,275,1.0,4.0,95,0.00,,,0.00,,2013-04-02 10:23:00,
2013-04-02 06:33:00,67.0,65.0,30.00,NNW,335,2.0,4.0,94,0.00,,,0.00,,2013-04-02 10:33:00,
2013-04-02 06:42:00,67.0,65.0,30.00,NNW,335,2.0,4.0,94,0.00,,,0.00,,2013-04-02 10:42:00,
2013-04-02 06:53:00,67.0,65.0,30.01,WNW,302,0.0,0.0,94,0.00,,,0.00,,2013-04-02 10:53:00,
2013-04-02 07:02:00,66.0,64.0,30.01,WNW,302,0.0,0.0,94,0.00,,,0.00,,2013-04-02 11:02:00,
2013-04-02 07:12:00,66.0,64.0,30.01,WNW,302,0.0,0.0,94,0.00,,,0.00,,2013-04-02 11:12:00,
2013-04-02 07:22:00,66.0,65.0,30.02,WNW,302,0.0,0.0,95,0.00,,,0.00,,2013-04-02 11:22:00,
2013-04-02 07:33:00,66.0,64.0,30.03,WNW,302,0.0,0.0,94,0.00,,,0.00,,2013-04-02 11:33:00,
2013-04-02 07:43:00,66.0,64.0,30.03,WNW,302,0.0,0.0,94,0.00,,,0.00,,2013-04-02 11:43:00,
2013-04-02 07:53:00,66.0,65.0,30.04,WNW,302,0.0,0.0,95,0.00,,,0.00,,2013-04-02 11:53:00,
2013-04-02 08:02:00,66.0,65.0,30.05,WNW,302,0.0,0.0,95,0.00,,,0.00,,2013-04-02 12:02:00,
2013-04-02 08:12:00,66.0,65.0,30.05,WNW,302,0.0,0.0,95,0.00,,,0.00,,2013-04-02 12:12:00,
2013-04-02 08:23:00,67.0,66.0,30.05,WNW,302,0.0,0.0,95,0.00,,,0.00,,2013-04-02 12:23:00,
2013-04-02 08:32:00,67.0,66.0,30.05,WNW,302,0.0,0.0,95,0.00,,,0.00,,2013-04-02 12:32:00,
2013-04-02 08:42:00,67.0,66.0,30.05,WNW,302,0.0,0.0,95,0.00,,,0.00,,2013-04-02 12:42:00,
2013-04-02 08:53:00,67.0,66.0,30.05,WSW,252,0.0,0.0,95,0.00,,,0.00,,2013-04-02 12:53:00,
2013-04-02 09:02:00,68.0,67.0,30.06,WNW,282,0.0,2.0,95,0.00,,,0.00,,2013-04-02 13:02:00,
2013-04-02 09:12:00,68.0,67.0,30.06,NW,306,1.0,4.0,95,0.00,,,0.00,,2013-04-02 13:12:00,
2013-04-02 09:22:00,68.0,67.0,30.06,NW,306,1.0,4.0,95,0.00,,,0.00,,2013-04-02 13:22:00,
2013-04-02 09:33:00,67.0,65.0,30.06,WNW,294,1.0,5.0,94,0.00,,,0.00,,2013-04-02 13:33:00,
2013-04-02 09:42:00,67.0,65.0,30.06,WNW,294,1.0,5.0,94,0.00,,,0.00,,2013-04-02 13:42:00,
2013-04-02 09:52:00,69.0,66.0,30.06,NW,314,3.0,6.0,89,0.00,,,0.00,,2013-04-02 13:52:00,
2013-04-02 10:02:00,70.0,64.0,30.06,WNW,301,1.0,6.0,82,0.00,,,0.00,,2013-04-02 14:02:00,
2013-04-02 10:12:00,70.0,64.0,30.06,WNW,301,1.0,6.0,82,0.00,,,0.00,,2013-04-02 14:12:00,
2013-04-02 10:23:00,72.0,65.0,30.07,WNW,295,1.0,5.0,78,0.00,,,0.00,,2013-04-02 14:23:00,
2013-04-02 10:32:00,72.0,62.0,30.07,NW,304,1.0,5.0,72,0.00,,,0.00,,2013-04-02 14:32:00,
2013-04-02 10:42:00,72.0,62.0,30.07,NW,304,1.0,5.0,72,0.00,,,0.00,,2013-04-02 14:42:00,
2013-04-02 10:52:00,73.0,63.0,30.07,West,270,2.0,5.0,72,0.00,,,0.00,,2013-04-02 14:52:00,
2013-04-02 11:02:00,73.0,63.0,30.07,WSW,254,3.0,7.0,72,0.00,,,0.00,,2013-04-02 15:02:00,
2013-04-02 11:11:00,73.0,63.0,30.07,WSW,254,3.0,7.0,72,0.00,,,0.00,,2013-04-02 15:11:00,
2013-04-02 11:22:00,74.0,64.0,30.07,West,272,4.0,8.0,72,0.00,,,0.00,,2013-04-02 15:22:00,
2013-04-02 11:33:00,74.0,64.0,30.07,West,277,5.0,7.0,70,0.00,,,0.00,,2013-04-02 15:33:00,
2013-04-02 11:43:00,74.0,64.0,30.07,West,277,5.0,7.0,70,0.00,,,0.00,,2013-04-02 15:43:00,
2013-04-02 11:58:00,75.0,64.0,30.07,West,266,4.0,8.0,69,0.00,,,0.00,,2013-04-02 15:58:00,
2013-04-02 12:04:00,75.0,64.0,30.07,WNW,292,4.0,8.0,69,0.00,,,0.00,,2013-04-02 16:04:00,
2013-04-02 12:13:00,75.0,64.0,30.07,WNW,292,4.0,8.0,69,0.00,,,0.00,,2013-04-02 16:13:00,
2013-04-02 12:24:00,75.0,64.0,30.07,WSW,257,5.0,8.0,69,0.00,,,0.00,,2013-04-02 16:24:00,
2013-04-02 12:37:00,75.0,65.0,30.06,WNW,294,3.0,8.0,71,0.00,,,0.00,,2013-04-02 16:37:00,
2013-04-02 12:44:00,75.0,65.0,30.06,WNW,294,3.0,8.0,71,0.00,,,0.00,,2013-04-02 16:44:00,
2013-04-02 12:53:00,76.0,66.0,30.06,WNW,292,3.0,7.0,71,0.00,,,0.00,,2013-04-02 16:53:00,
2013-04-02 13:05:00,76.0,64.0,30.06,WNW,299,4.0,8.0,67,0.00,,,0.00,,2013-04-02 17:05:00,
2013-04-02 13:13:00,76.0,64.0,30.06,WNW,299,4.0,8.0,67,0.00,,,0.00,,2013-04-02 17:13:00,
2013-04-02 13:25:00,77.0,66.0,30.06,NNW,343,3.0,7.0,68,0.00,,,0.00,,2013-04-02 17:25:00,
2013-04-02 13:34:00,77.0,65.0,30.06,West,263,3.0,7.0,67,0.00,,,0.00,,2013-04-02 17:34:00,
2013-04-02 13:43:00,77.0,65.0,30.06,West,263,3.0,7.0,67,0.00,,,0.00,,2013-04-02 17:43:00,
2013-04-02 13:56:00,77.0,64.0,30.05,West,269,4.0,7.0,64,0.00,,,0.00,,2013-04-02 17:56:00,
2013-04-02 14:04:00,79.0,64.0,30.04,WNW,284,3.0,6.0,60,0.00,,,0.00,,2013-04-02 18:04:00,
2013-04-02 14:12:00,79.0,64.0,30.04,WNW,284,3.0,6.0,60,0.00,,,0.00,,2013-04-02 18:12:00,
2013-04-02 14:23:00,79.0,65.0,30.04,WNW,294,4.0,6.0,62,0.00,,,0.00,,2013-04-02 18:23:00,
2013-04-02 14:34:00,79.0,64.0,30.03,West,260,3.0,7.0,60,0.00,,,0.00,,2013-04-02 18:34:00,
2013-04-02 14:43:00,79.0,64.0,30.03,West,260,3.0,7.0,60,0.00,,,0.00,,2013-04-02 18:43:00,
2013-04-02 14:57:00,79.0,65.0,30.03,West,269,3.0,8.0,63,0.00,,,0.00,,2013-04-02 18:57:00,
2013-04-02 15:03:00,80.0,64.0,30.02,WNW,299,3.0,8.0,59,0.00,,,0.00,,2013-04-02 19:03:00,
2013-04-02 15:13:00,80.0,64.0,30.02,WNW,299,3.0,8.0,59,0.00,,,0.00,,2013-04-02 19:13:00,
2013-04-02 15:23:00,79.0,62.0,30.02,NW,325,4.0,9.0,57,0.00,,,0.00,,2013-04-02 19:23:00,
2013-04-02 15:34:00,79.0,61.0,30.01,WSW,248,6.0,9.0,55,0.00,,,0.00,,2013-04-02 19:34:00,
2013-04-02 15:45:00,79.0,61.0,30.01,WSW,248,6.0,9.0,55,0.00,,,0.00,,2013-04-02 19:45:00,
2013-04-02 15:57:00,79.0,62.0,30.01,WSW,253,4.0,10.0,56,0.00,,,0.00,,2013-04-02 19:57:00,
2013-04-02 16:03:00,79.0,60.0,30.00,SW,225,4.0,8.0,53,0.00,,,0.00,,2013-04-02 20:03:00,
2013-04-02 16:13:00,79.0,60.0,30.00,SW,225,4.0,8.0,53,0.00,,,0.00,,2013-04-02 20:13:00,
2013-04-02 16:22:00,80.0,62.0,30.00,WSW,255,4.0,7.0,55,0.00,,,0.00,,2013-04-02 20:22:00,
2013-04-02 16:44:00,80.0,59.0,30.00,West,260,6.0,8.0,49,0.00,,,0.00,,2013-04-02 20:44:00,
2013-04-02 16:55:00,80.0,59.0,30.00,West,260,6.0,8.0,49,0.00,,,0.00,,2013-04-02 20:55:00,
2013-04-02 17:04:00,80.0,63.0,30.00,West,279,5.0,9.0,56,0.00,,,0.00,,2013-04-02 21:04:00,
2013-04-02 17:13:00,80.0,63.0,30.00,West,279,5.0,9.0,56,0.00,,,0.00,,2013-04-02 21:13:00,
2013-04-02 17:23:00,80.0,62.0,29.99,West,265,4.0,10.0,55,0.00,,,0.00,,2013-04-02 21:23:00,
2013-04-02 17:35:00,79.0,61.0,29.99,West,261,4.0,9.0,54,0.00,,,0.00,,2013-04-02 21:35:00,
2013-04-02 17:44:00,79.0,61.0,29.99,West,261,4.0,9.0,54,0.00,,,0.00,,2013-04-02 21:44:00,
2013-04-02 18:04:00,79.0,60.0,29.99,WNW,294,3.0,9.0,53,0.00,,,0.00,,2013-04-02 22:04:00,
2013-04-02 18:14:00,79.0,60.0,29.99,WNW,294,3.0,9.0,53,0.00,,,0.00,,2013-04-02 22:14:00,
2013-04-02 18:24:00,79.0,61.0,29.99,West,270,5.0,9.0,54,0.00,,,0.00,,2013-04-02 22:24:00,
2013-04-02 18:33:00,78.0,60.0,29.99,WSW,255,5.0,9.0,54,0.00,,,0.00,,2013-04-02 22:33:00,
2013-04-02 18:43:00,78.0,60.0,29.99,WSW,255,5.0,9.0,54,0.00,,,0.00,,2013-04-02 22:43:00,
2013-04-02 18:54:00,78.0,61.0,29.99,West,261,5.0,9.0,56,0.00,,,0.00,,2013-04-02 22:54:00,
2013-04-02 19:03:00,77.0,61.0,30.00,SW,225,7.0,10.0,57,0.00,,,0.00,,2013-04-02 23:03:00,
2013-04-02 19:13:00,77.0,63.0,30.00,West,261,4.0,9.0,61,0.00,,,0.00,,2013-04-02 23:13:00,
2013-04-02 19:23:00,77.0,63.0,30.00,West,261,4.0,9.0,61,0.00,,,0.00,,2013-04-02 23:23:00,
2013-04-02 19:35:00,75.0,62.0,30.01,West,275,5.0,8.0,64,0.00,,,0.00,,2013-04-02 23:35:00,
2013-04-02 19:43:00,75.0,62.0,30.01,West,275,5.0,8.0,64,0.00,,,0.00,,2013-04-02 23:43:00,
2013-04-02 19:54:00,74.0,62.0,30.00,West,280,3.0,8.0,67,0.00,,,0.00,,2013-04-02 23:54:00,
2013-04-02 20:04:00,73.0,61.0,30.00,WSW,257,5.0,7.0,67,0.00,,,0.00,,2013-04-03 00:04:00,
2013-04-02 20:13:00,73.0,61.0,30.00,WSW,257,5.0,7.0,67,0.00,,,0.00,,2013-04-03 00:13:00,
2013-04-02 20:25:00,72.0,62.0,30.01,WNW,286,4.0,8.0,71,0.00,,,0.00,,2013-04-03 00:25:00,
2013-04-02 20:33:00,72.0,62.0,30.01,West,281,3.0,9.0,71,0.00,,,0.00,,2013-04-03 00:33:00,
2013-04-02 20:47:00,72.0,62.0,30.01,West,281,3.0,9.0,71,0.00,,,0.00,,2013-04-03 00:47:00,
2013-04-02 20:57:00,71.0,62.0,30.01,West,279,3.0,9.0,73,0.00,,,0.00,,2013-04-03 00:57:00,
2013-04-02 21:04:00,71.0,64.0,30.02,West,276,1.0,5.0,78,0.00,,,0.00,,2013-04-03 01:04:00,
2013-04-02 21:13:00,71.0,64.0,30.02,West,276,1.0,5.0,78,0.00,,,0.00,,2013-04-03 01:13:00,
2013-04-02 21:23:00,70.0,64.0,30.02,WNW,292,1.0,6.0,81,0.00,,,0.00,,2013-04-03 01:23:00,
2013-04-02 21:33:00,70.0,65.0,30.03,NW,311,2.0,4.0,83,0.00,,,0.00,,2013-04-03 01:33:00,
2013-04-02 21:42:00,70.0,65.0,30.03,NW,311,2.0,4.0,83,0.00,,,0.00,,2013-04-03 01:42:00,
2013-04-02 21:54:00,69.0,64.0,30.03,NNW,329,1.0,4.0,85,0.00,,,0.00,,2013-04-03 01:54:00,
2013-04-02 22:03:00,69.0,64.0,30.03,WNW,295,1.0,4.0,85,0.00,,,0.00,,2013-04-03 02:03:00,
2013-04-02 22:13:00,69.0,64.0,30.03,WNW,295,1.0,4.0,85,0.00,,,0.00,,2013-04-03 02:13:00,
2013-04-02 22:24:00,68.0,63.0,30.03,NNW,330,1.0,4.0,85,0.00,,,0.00,,2013-04-03 02:24:00,
2013-04-02 22:34:00,68.0,64.0,30.03,NE,36,0.0,9.0,87,0.00,,,0.00,,2013-04-03 02:34:00,
2013-04-02 22:44:00,68.0,64.0,30.03,NE,36,0.0,9.0,87,0.00,,,0.00,,2013-04-03 02:44:00,
2013-04-02 22:53:00,67.0,63.0,30.05,NE,42,0.0,7.0,87,0.00,,,0.00,,2013-04-03 02:53:00,
2013-04-02 23:05:00,67.0,63.0,30.05,East,88,0.0,2.0,87,0.00,,,0.00,,2013-04-03 03:05:00,
2013-04-02 23:14:00,67.0,63.0,30.05,East,88,0.0,2.0,87,0.00,,,0.00,,2013-04-03 03:14:00,
2013-04-02 23:23:00,68.0,64.0,30.04,South,169,0.0,2.0,88,0.00,,,0.00,,2013-04-03 03:23:00,
2013-04-02 23:37:00,68.0,64.0,30.05,South,169,0.0,0.0,88,0.00,,,0.00,,2013-04-03 03:37:00,
2013-04-02 23:44:00,68.0,64.0,30.05,South,169,0.0,0.0,88,0.00,,,0.00,,2013-04-03 03:44:00,
2013-04-02 23:54:00,67.0,63.0,30.05,South,169,0.0,0.0,88,0.00,,,0.00,,2013-04-03 03:54:00,